Time;durP1;ratioP1;P1;durP2;ratioP2;P2;SDS_P1;SDS_P2;PMS_P1;PMS_P2;Temp;Humidity;BMP_temperature;BMP_pressure;BME280_temperature;BME280_humidity;BME280_pressure;Samples;Min_cycle;Max_cycle;Signal;HPM_P1;HPM_P2
2022/08/20 00:00:24;;;;;;;12.73;7.68;;;;;;;;;;5091532;27;20389;-60
2022/08/20 00:02:55;;;;;;;9.77;6.18;;;;;;;;;;5108603;27;20043;-68
2022/08/20 00:05:42;;;;;;;11.10;6.57;;;;;;;;;;5122258;27;20120;-58
2022/08/20 00:08:08;;;;;;;11.65;7.13;;;;;;;;;;5119328;27;20043;-64
2022/08/20 00:10:36;;;;;;;9.85;6.15;;;;;;;;;;5108149;27;20055;-57
2022/08/20 00:13:03;;;;;;;16.38;6.30;;;;;;;;;;5108480;27;20047;-64
2022/08/20 00:15:30;;;;;;;10.65;5.65;;;;;;;;;;5117087;27;20050;-60
2022/08/20 00:17:57;;;;;;;10.23;5.65;;;;;;;;;;5105091;28;20132;-63
2022/08/20 00:20:25;;;;;;;9.13;5.32;;;;;;;;;;5111633;27;20039;-60
2022/08/20 00:22:51;;;;;;;7.78;6.07;;;;;;;;;;5111205;27;20043;-57
2022/08/20 00:25:17;;;;;;;13.10;5.80;;;;;;;;;;5092743;28;20142;-65
2022/08/20 00:27:43;;;;;;;10.98;5.70;;;;;;;;;;5107037;28;20056;-58
2022/08/20 00:30:10;;;;;;;11.18;5.43;;;;;;;;;;5105418;28;20096;-59
2022/08/20 00:32:44;;;;;;;16.52;6.03;;;;;;;;;;5107249;27;20047;-62
2022/08/20 00:35:10;;;;;;;11.50;5.15;;;;;;;;;;5105535;28;20059;-64
2022/08/20 00:37:36;;;;;;;9.73;5.70;;;;;;;;;;5106133;28;20047;-62
2022/08/20 00:40:02;;;;;;;10.10;5.43;;;;;;;;;;5104752;28;20075;-59
2022/08/20 00:42:28;;;;;;;12.10;6.05;;;;;;;;;;5112590;27;20092;-65
2022/08/20 00:44:54;;;;;;;8.15;5.75;;;;;;;;;;5105703;28;20100;-56
2022/08/20 00:47:20;;;;;;;11.18;5.60;;;;;;;;;;5111108;27;20151;-62
2022/08/20 00:49:47;;;;;;;12.00;6.40;;;;;;;;;;5117018;27;20101;-58
2022/08/20 00:52:15;;;;;;;16.65;6.47;;;;;;;;;;5104684;28;20172;-65
2022/08/20 00:54:44;;;;;;;8.37;5.20;;;;;;;;;;5105989;28;20498;-60
2022/08/20 00:57:19;;;;;;;11.10;5.68;;;;;;;;;;5105659;28;20115;-57
2022/08/20 00:59:45;;;;;;;13.45;6.15;;;;;;;;;;5094698;28;20047;-59
2022/08/20 01:02:14;;;;;;;16.60;5.60;;;;;;;;;;5105216;28;20044;-56
2022/08/20 01:04:44;;;;;;;13.30;6.47;;;;;;;;;;5139454;27;20043;-59
2022/08/20 01:07:10;;;;;;;16.75;6.15;;;;;;;;;;5106329;28;20055;-60
2022/08/20 01:09:37;;;;;;;10.57;5.78;;;;;;;;;;5119446;27;20047;-60
2022/08/20 01:12:04;;;;;;;13.45;4.95;;;;;;;;;;5107356;28;20413;-64
2022/08/20 01:17:01;;;;;;;11.18;4.28;;;;;;;;;;5106298;28;20051;-63
2022/08/20 01:19:30;;;;;;;12.05;4.35;;;;;;;;;;5113747;28;20043;-61
2022/08/20 01:21:56;;;;;;;8.52;3.15;;;;;;;;;;5122567;28;20092;-61
2022/08/20 01:24:30;;;;;;;17.67;3.60;;;;;;;;;;5105719;28;20051;-64
2022/08/20 01:26:56;;;;;;;13.80;3.05;;;;;;;;;;5106269;28;20048;-59
2022/08/20 01:29:24;;;;;;;10.88;2.97;;;;;;;;;;5112039;28;20051;-68
2022/08/20 01:31:51;;;;;;;18.05;3.88;;;;;;;;;;5104294;28;20035;-59
2022/08/20 01:34:18;;;;;;;9.63;2.40;;;;;;;;;;5125635;27;20168;-61
2022/08/20 01:36:52;;;;;;;12.68;2.92;;;;;;;;;;5108561;28;20636;-58
2022/08/20 01:39:23;;;;;;;11.50;2.92;;;;;;;;;;5110252;27;20039;-58
2022/08/20 01:41:58;;;;;;;9.75;2.42;;;;;;;;;;5111087;27;20176;-66
2022/08/20 01:44:24;;;;;;;10.13;2.78;;;;;;;;;;5109900;28;20516;-58
2022/08/20 01:46:51;;;;;;;13.10;2.22;;;;;;;;;;5109640;28;20035;-58
2022/08/20 01:49:27;;;;;;;12.15;2.42;;;;;;;;;;5109883;28;20100;-61
2022/08/20 01:51:53;;;;;;;6.00;2.00;;;;;;;;;;5111341;27;20460;-63
2022/08/20 01:54:20;;;;;;;12.88;2.75;;;;;;;;;;5109530;28;20397;-58
2022/08/20 01:57:03;;;;;;;9.63;2.20;;;;;;;;;;5109336;28;20082;-61
2022/08/20 01:59:30;;;;;;;13.13;2.47;;;;;;;;;;5119555;27;20058;-66
2022/08/20 02:01:56;;;;;;;11.48;2.20;;;;;;;;;;5111769;27;20113;-58
2022/08/20 02:04:23;;;;;;;10.05;2.08;;;;;;;;;;5118010;27;20073;-65
2022/08/20 02:06:54;;;;;;;11.90;2.60;;;;;;;;;;5117272;27;20473;-56
2022/08/20 02:09:21;;;;;;;14.15;2.75;;;;;;;;;;5126891;27;20076;-60
2022/08/20 02:11:47;;;;;;;8.05;1.90;;;;;;;;;;5128277;27;20617;-59
2022/08/20 02:14:14;;;;;;;8.48;2.28;;;;;;;;;;5113558;27;20112;-65
2022/08/20 02:16:41;;;;;;;15.07;2.97;;;;;;;;;;5108832;28;20489;-61
2022/08/20 02:19:10;;;;;;;12.95;2.70;;;;;;;;;;5107645;28;20040;-56
2022/08/20 02:21:37;;;;;;;12.02;2.63;;;;;;;;;;5108989;28;20443;-58
2022/08/20 02:24:04;;;;;;;13.82;3.33;;;;;;;;;;5108711;27;20039;-57
2022/08/20 02:26:30;;;;;;;13.60;3.50;;;;;;;;;;5108264;28;20040;-58
2022/08/20 02:28:58;;;;;;;11.15;3.40;;;;;;;;;;5125952;27;20088;-64
2022/08/20 02:31:24;;;;;;;12.25;3.47;;;;;;;;;;5107522;28;20047;-57
2022/08/20 02:33:51;;;;;;;13.93;3.50;;;;;;;;;;5143647;27;20035;-58
2022/08/20 02:36:19;;;;;;;14.60;3.10;;;;;;;;;;5112867;27;20043;-64
2022/08/20 02:38:45;;;;;;;11.98;3.10;;;;;;;;;;5108450;28;20043;-65
2022/08/20 02:41:11;;;;;;;10.73;3.40;;;;;;;;;;5114198;27;20446;-57
2022/08/20 02:43:38;;;;;;;9.80;3.72;;;;;;;;;;5108054;28;20122;-66
2022/08/20 02:46:05;;;;;;;20.95;4.50;;;;;;;;;;5115754;27;20032;-57
2022/08/20 02:48:32;;;;;;;18.55;4.47;;;;;;;;;;5107516;28;20043;-68
2022/08/20 02:51:03;;;;;;;11.88;3.60;;;;;;;;;;5108309;28;20082;-61
2022/08/20 02:53:32;;;;;;;13.45;4.00;;;;;;;;;;5109978;27;20044;-63
2022/08/20 02:55:59;;;;;;;17.05;4.40;;;;;;;;;;5108755;28;20126;-63
2022/08/20 02:58:28;;;;;;;17.98;5.00;;;;;;;;;;5108609;28;20048;-61
2022/08/20 03:00:55;;;;;;;11.95;2.85;;;;;;;;;;5107906;28;20039;-58
2022/08/20 03:03:23;;;;;;;7.93;2.42;;;;;;;;;;5114433;27;20054;-65
2022/08/20 03:05:51;;;;;;;9.27;2.20;;;;;;;;;;5098094;28;20055;-60
2022/08/20 03:08:17;;;;;;;10.80;2.77;;;;;;;;;;5108342;28;20934;-63
2022/08/20 03:10:45;;;;;;;11.30;2.90;;;;;;;;;;5107597;28;20043;-66
2022/08/20 03:13:12;;;;;;;22.45;4.35;;;;;;;;;;5107954;28;20102;-57
2022/08/20 03:15:39;;;;;;;13.95;3.90;;;;;;;;;;5113841;27;20442;-64
2022/08/20 03:18:05;;;;;;;19.67;4.20;;;;;;;;;;5107894;28;20031;-57
2022/08/20 03:20:32;;;;;;;20.17;3.65;;;;;;;;;;5107478;28;20047;-56
2022/08/20 03:22:58;;;;;;;14.85;3.33;;;;;;;;;;5141382;27;20051;-67
2022/08/20 03:25:24;;;;;;;14.48;2.60;;;;;;;;;;5109253;27;20063;-57
2022/08/20 03:27:50;;;;;;;19.50;3.92;;;;;;;;;;5105872;28;20047;-62
2022/08/20 03:30:16;;;;;;;12.95;2.42;;;;;;;;;;5109206;28;20035;-60
2022/08/20 03:32:43;;;;;;;18.27;2.75;;;;;;;;;;5105615;28;20052;-61
2022/08/20 03:35:11;;;;;;;13.93;2.70;;;;;;;;;;5110039;27;21017;-62
2022/08/20 03:37:37;;;;;;;11.32;2.30;;;;;;;;;;5107537;28;20064;-57
2022/08/20 03:40:05;;;;;;;11.15;2.25;;;;;;;;;;5107425;28;20043;-60
2022/08/20 03:42:32;;;;;;;20.08;3.67;;;;;;;;;;5107434;28;20044;-57
2022/08/20 03:44:58;;;;;;;12.77;2.55;;;;;;;;;;5123042;27;20051;-66
2022/08/20 03:47:24;;;;;;;19.00;2.53;;;;;;;;;;5108923;28;20055;-61
2022/08/20 03:49:50;;;;;;;16.60;2.35;;;;;;;;;;5139981;27;20090;-63
2022/08/20 03:52:16;;;;;;;12.35;2.15;;;;;;;;;;5108524;28;20043;-63
2022/08/20 03:54:44;;;;;;;19.23;2.60;;;;;;;;;;5106189;28;20047;-58
2022/08/20 03:57:14;;;;;;;11.98;2.10;;;;;;;;;;5107497;28;20497;-58
2022/08/20 03:59:41;;;;;;;9.88;2.13;;;;;;;;;;5106624;28;20055;-56
2022/08/20 04:02:09;;;;;;;20.75;2.03;;;;;;;;;;5105716;28;20071;-56
2022/08/20 04:04:37;;;;;;;10.27;2.28;;;;;;;;;;5109878;27;20101;-61
2022/08/20 04:07:24;;;;;;;14.82;2.50;;;;;;;;;;5107446;27;20040;-63
2022/08/20 04:09:51;;;;;;;16.52;2.13;;;;;;;;;;5109162;27;20393;-65
2022/08/20 04:12:17;;;;;;;17.65;2.40;;;;;;;;;;5111267;27;20064;-53
2022/08/20 04:14:43;;;;;;;12.15;2.25;;;;;;;;;;5107300;28;20040;-63
2022/08/20 04:17:12;;;;;;;19.90;2.72;;;;;;;;;;5108326;28;20040;-57
2022/08/20 04:19:39;;;;;;;;;;;;;;;;;;5106004;28;20124;-57
2022/08/20 04:22:06;;;;;;;8.25;1.80;;;;;;;;;;5109224;27;19919;-55
2022/08/20 04:24:33;;;;;;;11.85;2.35;;;;;;;;;;5105453;28;20097;-63
2022/08/20 04:27:01;;;;;;;10.82;2.50;;;;;;;;;;5106458;28;20066;-56
2022/08/20 04:29:27;;;;;;;10.35;2.03;;;;;;;;;;5105373;28;20055;-55
2022/08/20 04:31:54;;;;;;;12.18;2.20;;;;;;;;;;5121315;27;20136;-57
2022/08/20 04:34:20;;;;;;;12.88;2.78;;;;;;;;;;5107842;28;20420;-54
2022/08/20 04:36:47;;;;;;;15.48;2.63;;;;;;;;;;5106198;28;20041;-57
2022/08/20 04:39:16;;;;;;;12.40;2.05;;;;;;;;;;5108120;28;20083;-58
2022/08/20 04:41:43;;;;;;;17.02;2.35;;;;;;;;;;5105049;28;20414;-64
2022/08/20 04:44:10;;;;;;;11.15;2.65;;;;;;;;;;5107914;28;20376;-59
2022/08/20 04:46:36;;;;;;;13.23;2.00;;;;;;;;;;5139451;27;20050;-55
2022/08/20 04:49:03;;;;;;;8.73;2.00;;;;;;;;;;5122832;27;20326;-62
2022/08/20 04:51:29;;;;;;;18.60;2.60;;;;;;;;;;5107436;28;20054;-60
2022/08/20 04:53:56;;;;;;;8.77;2.17;;;;;;;;;;5113305;27;20047;-62
2022/08/20 04:56:27;;;;;;;15.43;2.22;;;;;;;;;;5107931;28;20047;-62
2022/08/20 04:58:54;;;;;;;8.88;2.22;;;;;;;;;;5105853;28;20048;-61
2022/08/20 05:01:22;;;;;;;10.68;2.13;;;;;;;;;;5108144;28;20043;-54
2022/08/20 05:03:48;;;;;;;10.05;2.55;;;;;;;;;;5112627;27;20075;-60
2022/08/20 05:06:16;;;;;;;10.88;2.40;;;;;;;;;;5106299;28;20500;-55
2022/08/20 05:08:42;;;;;;;13.50;2.65;;;;;;;;;;5105468;28;20067;-67
2022/08/20 05:11:13;;;;;;;8.02;1.70;;;;;;;;;;5121591;27;20051;-56
2022/08/20 05:13:39;;;;;;;13.73;1.92;;;;;;;;;;5118181;28;20048;-60
2022/08/20 05:16:05;;;;;;;9.88;2.00;;;;;;;;;;5116264;28;20036;-56
2022/08/20 05:18:32;;;;;;;9.57;1.73;;;;;;;;;;5123228;28;20115;-57
2022/08/20 05:21:04;;;;;;;12.95;1.92;;;;;;;;;;5105325;28;20070;-61
2022/08/20 05:23:31;;;;;;;9.63;1.85;;;;;;;;;;5107723;28;20101;-55
2022/08/20 05:25:57;;;;;;;9.70;2.10;;;;;;;;;;5105698;28;20071;-55
2022/08/20 05:28:25;;;;;;;12.05;2.10;;;;;;;;;;5106488;28;20035;-58
2022/08/20 05:30:51;;;;;;;10.88;1.88;;;;;;;;;;5087435;28;20048;-59
2022/08/20 05:33:18;;;;;;;7.45;1.80;;;;;;;;;;5086160;28;20039;-59
2022/08/20 05:35:46;;;;;;;10.18;1.83;;;;;;;;;;5102367;28;20050;-60
2022/08/20 05:38:14;;;;;;;10.70;2.03;;;;;;;;;;5104212;28;20754;-55
2022/08/20 05:40:41;;;;;;;10.88;2.55;;;;;;;;;;5107446;28;20039;-57
2022/08/20 05:43:08;;;;;;;17.35;3.22;;;;;;;;;;5104375;28;20322;-53
2022/08/20 05:45:37;;;;;;;11.00;2.13;;;;;;;;;;5122427;28;20051;-65
2022/08/20 05:48:05;;;;;;;10.30;2.47;;;;;;;;;;5137783;27;20067;-63
2022/08/20 05:50:32;;;;;;;12.80;2.58;;;;;;;;;;5104407;28;20043;-59
2022/08/20 05:52:58;;;;;;;16.73;2.60;;;;;;;;;;5113396;28;20554;-66
2022/08/20 05:55:24;;;;;;;5.50;1.55;;;;;;;;;;5118840;28;20080;-55
2022/08/20 05:57:56;;;;;;;10.55;1.65;;;;;;;;;;5120176;28;20397;-52
2022/08/20 06:00:22;;;;;;;9.25;1.90;;;;;;;;;;5118195;28;20497;-62
2022/08/20 06:05:33;;;;;;;8.75;1.77;;;;;;;;;;5109094;28;20039;-52
2022/08/20 06:08:00;;;;;;;11.50;1.73;;;;;;;;;;5105108;28;20032;-54
2022/08/20 06:10:26;;;;;;;12.77;1.95;;;;;;;;;;5106775;28;20126;-63
2022/08/20 06:12:52;;;;;;;13.35;1.92;;;;;;;;;;5104633;28;20369;-52
2022/08/20 06:15:19;;;;;;;16.05;2.05;;;;;;;;;;5106426;28;20058;-60
2022/08/20 06:17:45;;;;;;;9.52;1.55;;;;;;;;;;5105982;28;20398;-55
2022/08/20 06:20:11;;;;;;;8.43;2.00;;;;;;;;;;5108168;28;20043;-57
2022/08/20 06:22:37;;;;;;;13.48;2.00;;;;;;;;;;5109304;28;20047;-54
2022/08/20 06:25:05;;;;;;;14.05;2.53;;;;;;;;;;5109886;27;20044;-56
2022/08/20 06:27:31;;;;;;;13.20;2.60;;;;;;;;;;5110756;27;20088;-54
2022/08/20 06:29:57;;;;;;;13.00;2.30;;;;;;;;;;5141321;27;20295;-66
2022/08/20 06:32:25;;;;;;;10.50;2.47;;;;;;;;;;5110966;27;20111;-53
2022/08/20 06:34:51;;;;;;;13.75;2.45;;;;;;;;;;5108608;27;20039;-62
2022/08/20 06:37:25;;;;;;;16.13;2.15;;;;;;;;;;5108186;28;20130;-52
2022/08/20 06:39:53;;;;;;;14.95;2.55;;;;;;;;;;5108594;28;20054;-62
2022/08/20 06:42:20;;;;;;;11.75;2.58;;;;;;;;;;5141926;27;20048;-54
2022/08/20 06:44:48;;;;;;;13.77;2.20;;;;;;;;;;5108767;28;20051;-63
2022/08/20 06:47:15;;;;;;;13.93;2.03;;;;;;;;;;5130195;27;20494;-64
2022/08/20 06:49:41;;;;;;;19.00;2.40;;;;;;;;;;5108978;28;21080;-56
2022/08/20 06:52:07;;;;;;;12.93;1.92;;;;;;;;;;5108620;28;20390;-51
2022/08/20 06:54:33;;;;;;;8.45;1.75;;;;;;;;;;5108424;28;20966;-53
2022/08/20 06:57:00;;;;;;;10.57;1.90;;;;;;;;;;5116173;27;20042;-55
2022/08/20 06:59:26;;;;;;;7.10;1.65;;;;;;;;;;5142136;27;20059;-53
2022/08/20 07:01:55;;;;;;;11.02;2.15;;;;;;;;;;5115858;27;20056;-61
2022/08/20 07:04:25;;;;;;;8.32;1.42;;;;;;;;;;5108122;28;20761;-62
2022/08/20 07:06:56;;;;;;;10.27;1.88;;;;;;;;;;5124790;27;20079;-59
2022/08/20 07:09:23;;;;;;;9.05;1.70;;;;;;;;;;5108429;28;20187;-58
2022/08/20 07:11:49;;;;;;;12.50;2.78;;;;;;;;;;5114323;27;20413;-57
2022/08/20 07:14:17;;;;;;;6.18;1.55;;;;;;;;;;5108856;28;20035;-52
2022/08/20 07:16:43;;;;;;;12.05;1.95;;;;;;;;;;5112233;27;20421;-63
2022/08/20 07:19:10;;;;;;;7.82;1.55;;;;;;;;;;5107638;28;20402;-60
2022/08/20 07:21:36;;;;;;;7.05;1.73;;;;;;;;;;5106766;28;20451;-59
2022/08/20 07:24:02;;;;;;;8.52;1.60;;;;;;;;;;5112853;27;20039;-66
2022/08/20 07:26:28;;;;;;;5.43;1.23;;;;;;;;;;5106602;28;20039;-59
2022/08/20 07:28:55;;;;;;;9.98;1.48;;;;;;;;;;5107916;28;20481;-57
2022/08/20 07:34:07;;;;;;;8.40;1.77;;;;;;;;;;5140629;27;20055;-66
2022/08/20 07:36:33;;;;;;;11.07;1.33;;;;;;;;;;5124438;27;20052;-58
2022/08/20 07:39:00;;;;;;;6.88;2.05;;;;;;;;;;5105811;28;20036;-57
2022/08/20 07:41:26;;;;;;;11.23;1.33;;;;;;;;;;5107388;28;20411;-60
2022/08/20 07:43:53;;;;;;;8.90;1.40;;;;;;;;;;5107747;28;20036;-63
2022/08/20 07:46:20;;;;;;;12.20;1.60;;;;;;;;;;5108908;27;20490;-60
2022/08/20 07:48:48;;;;;;;7.88;1.63;;;;;;;;;;5107015;27;20047;-64
2022/08/20 07:51:16;;;;;;;5.30;1.48;;;;;;;;;;5107306;28;20043;-61
2022/08/20 07:53:43;;;;;;;6.05;1.25;;;;;;;;;;5107066;28;20055;-65
2022/08/20 07:56:11;;;;;;;6.35;1.35;;;;;;;;;;5106564;28;20055;-57
2022/08/20 07:58:42;;;;;;;9.70;2.03;;;;;;;;;;5107392;28;20188;-57
2022/08/20 08:01:10;;;;;;;7.10;1.35;;;;;;;;;;5123065;27;20462;-58
2022/08/20 08:03:36;;;;;;;5.03;1.63;;;;;;;;;;5119637;27;20054;-59
2022/08/20 08:06:03;;;;;;;5.72;1.58;;;;;;;;;;5119385;27;20438;-59
2022/08/20 08:08:31;;;;;;;4.97;1.33;;;;;;;;;;5121655;27;20485;-63
2022/08/20 08:11:00;;;;;;;8.35;1.67;;;;;;;;;;5118397;27;20039;-56
2022/08/20 08:13:27;;;;;;;7.13;1.30;;;;;;;;;;5105622;28;20101;-63
2022/08/20 08:15:56;;;;;;;5.00;1.25;;;;;;;;;;5108350;27;20044;-63
2022/08/20 08:18:23;;;;;;;4.53;1.40;;;;;;;;;;5106661;28;20320;-62
2022/08/20 08:20:52;;;;;;;4.45;1.27;;;;;;;;;;5109109;27;20047;-62
2022/08/20 08:23:19;;;;;;;3.30;0.90;;;;;;;;;;5107707;28;20090;-61
2022/08/20 08:25:45;;;;;;;6.35;1.30;;;;;;;;;;5139616;27;20050;-60
2022/08/20 08:28:13;;;;;;;10.32;1.83;;;;;;;;;;5106324;28;20450;-58
2022/08/20 08:30:39;;;;;;;8.23;1.20;;;;;;;;;;5129878;27;20051;-64
2022/08/20 08:35:51;;;;;;;11.27;1.75;;;;;;;;;;5104214;28;20044;-61
2022/08/20 08:38:17;;;;;;;7.05;1.42;;;;;;;;;;5121758;27;20163;-60
2022/08/20 08:40:44;;;;;;;8.52;1.35;;;;;;;;;;5116073;27;20053;-56
2022/08/20 08:43:11;;;;;;;9.82;1.55;;;;;;;;;;5092300;27;20399;-67
2022/08/20 08:45:44;;;;;;;4.00;1.23;;;;;;;;;;5116094;27;20316;-62
2022/08/20 08:48:14;;;;;;;9.13;1.95;;;;;;;;;;5102257;28;20065;-61
2022/08/20 08:50:41;;;;;;;4.90;1.15;;;;;;;;;;5105069;28;20035;-66
2022/08/20 08:53:10;;;;;;;5.63;1.63;;;;;;;;;;5103717;27;20100;-61
2022/08/20 08:55:36;;;;;;;13.25;1.92;;;;;;;;;;5103910;28;20130;-62
2022/08/20 08:58:03;;;;;;;8.20;1.92;;;;;;;;;;5098999;28;20035;-64
2022/08/20 09:00:29;;;;;;;12.93;1.70;;;;;;;;;;5103756;27;20956;-57
2022/08/20 09:03:01;;;;;;;8.80;1.83;;;;;;;;;;5111178;27;20039;-61
2022/08/20 09:05:31;;;;;;;7.60;1.35;;;;;;;;;;5101702;28;20890;-60
2022/08/20 09:07:58;;;;;;;8.68;1.45;;;;;;;;;;5113842;27;20039;-56
2022/08/20 09:10:24;;;;;;;5.15;1.15;;;;;;;;;;5108049;27;20497;-61
2022/08/20 09:12:51;;;;;;;6.10;1.30;;;;;;;;;;5107168;28;20059;-67
2022/08/20 09:15:17;;;;;;;8.57;1.38;;;;;;;;;;5106952;28;20052;-56
2022/08/20 09:17:43;;;;;;;9.07;1.50;;;;;;;;;;5114898;28;20126;-64
2022/08/20 09:20:09;;;;;;;5.35;1.42;;;;;;;;;;5119169;28;20136;-60
2022/08/20 09:22:36;;;;;;;5.32;1.02;;;;;;;;;;5101904;28;20047;-57
2022/08/20 09:25:02;;;;;;;11.07;1.20;;;;;;;;;;5119697;28;20628;-61
2022/08/20 09:27:30;;;;;;;6.60;1.35;;;;;;;;;;5094855;28;20274;-55
2022/08/20 09:29:56;;;;;;;8.02;1.40;;;;;;;;;;5106911;28;20508;-57
2022/08/20 09:32:23;;;;;;;10.82;2.00;;;;;;;;;;5114467;28;20109;-64
2022/08/20 09:34:54;;;;;;;4.68;1.38;;;;;;;;;;5122070;28;20518;-66
2022/08/20 09:37:21;;;;;;;8.13;1.70;;;;;;;;;;5108790;28;20044;-59
2022/08/20 09:39:47;;;;;;;5.93;1.10;;;;;;;;;;5105675;28;20054;-56
2022/08/20 09:42:13;;;;;;;12.32;1.15;;;;;;;;;;5121825;28;20131;-58
2022/08/20 09:44:39;;;;;;;7.07;1.95;;;;;;;;;;5098969;28;20047;-56
2022/08/20 09:47:06;;;;;;;3.50;1.15;;;;;;;;;;5101465;28;20042;-63
2022/08/20 09:49:32;;;;;;;4.55;1.10;;;;;;;;;;5104912;28;20113;-59
2022/08/20 09:51:59;;;;;;;6.07;1.05;;;;;;;;;;5105974;28;20443;-65
2022/08/20 09:54:28;;;;;;;3.40;1.00;;;;;;;;;;5106077;28;20071;-57
2022/08/20 09:56:54;;;;;;;;;;;;;;;;;;5105966;27;20051;-64
2022/08/20 09:59:20;;;;;;;3.03;1.27;;;;;;;;;;5112186;27;19919;-61
2022/08/20 10:01:47;;;;;;;7.40;1.52;;;;;;;;;;5113011;27;20572;-59
2022/08/20 10:04:13;;;;;;;4.05;1.08;;;;;;;;;;5117765;27;20425;-64
2022/08/20 10:06:39;;;;;;;5.28;0.95;;;;;;;;;;5113643;27;20067;-57
2022/08/20 10:09:05;;;;;;;4.95;1.30;;;;;;;;;;5108382;27;20044;-61
2022/08/20 10:11:31;;;;;;;9.85;1.27;;;;;;;;;;5108412;28;20104;-57
2022/08/20 10:13:58;;;;;;;5.30;1.27;;;;;;;;;;5110219;27;20617;-55
2022/08/20 10:16:24;;;;;;;3.97;0.95;;;;;;;;;;5106928;27;20067;-60
2022/08/20 10:18:50;;;;;;;7.53;1.08;;;;;;;;;;5111336;27;20055;-66
2022/08/20 10:21:16;;;;;;;6.82;1.48;;;;;;;;;;5116825;27;20039;-61
2022/08/20 10:23:42;;;;;;;6.75;1.75;;;;;;;;;;5125549;27;20035;-65
2022/08/20 10:26:09;;;;;;;8.68;1.27;;;;;;;;;;5106659;27;20499;-64
2022/08/20 10:28:41;;;;;;;5.30;1.15;;;;;;;;;;5125450;27;20062;-57
2022/08/20 10:31:08;;;;;;;8.80;1.58;;;;;;;;;;5124393;27;20039;-67
2022/08/20 10:33:34;;;;;;;5.22;1.45;;;;;;;;;;5123331;27;20057;-64
2022/08/20 10:36:08;;;;;;;7.00;1.48;;;;;;;;;;5113705;27;20512;-63
2022/08/20 10:38:34;;;;;;;6.00;1.30;;;;;;;;;;5107069;28;20079;-64
2022/08/20 10:41:00;;;;;;;5.60;1.30;;;;;;;;;;5139819;27;20050;-61
2022/08/20 10:43:27;;;;;;;6.10;1.50;;;;;;;;;;5106554;28;20043;-63
2022/08/20 10:45:53;;;;;;;4.80;1.42;;;;;;;;;;5107663;28;20043;-61
2022/08/20 10:48:21;;;;;;;4.97;1.40;;;;;;;;;;5105000;28;20047;-66
2022/08/20 10:50:47;;;;;;;4.63;1.40;;;;;;;;;;5109757;27;20028;-60
2022/08/20 10:53:13;;;;;;;2.75;1.30;;;;;;;;;;5106724;27;20506;-66
2022/08/20 10:55:39;;;;;;;8.93;1.92;;;;;;;;;;5121464;27;20048;-61
2022/08/20 10:58:06;;;;;;;8.48;1.48;;;;;;;;;;5107395;27;20074;-60
2022/08/20 11:00:32;;;;;;;6.07;1.92;;;;;;;;;;5113991;27;20044;-57
2022/08/20 11:02:58;;;;;;;6.75;1.67;;;;;;;;;;5120767;27;20074;-66
2022/08/20 11:05:24;;;;;;;8.13;1.83;;;;;;;;;;5103977;28;20350;-54
2022/08/20 11:07:50;;;;;;;5.10;1.23;;;;;;;;;;5107573;28;20396;-60
2022/08/20 11:10:17;;;;;;;5.32;1.35;;;;;;;;;;5108962;27;20051;-56
2022/08/20 11:12:43;;;;;;;6.35;1.83;;;;;;;;;;5108490;27;20059;-67
2022/08/20 11:15:10;;;;;;;5.28;1.52;;;;;;;;;;5140293;27;20520;-58
2022/08/20 11:17:39;;;;;;;5.15;1.42;;;;;;;;;;5116585;27;20505;-56
2022/08/20 11:20:06;;;;;;;7.38;1.77;;;;;;;;;;5115041;27;20563;-58
2022/08/20 11:22:32;;;;;;;7.88;1.70;;;;;;;;;;5116253;27;20036;-60
2022/08/20 11:24:59;;;;;;;5.38;1.33;;;;;;;;;;5107787;28;20442;-58
2022/08/20 11:27:28;;;;;;;5.30;1.50;;;;;;;;;;5108651;27;20055;-60
2022/08/20 11:29:54;;;;;;;4.32;1.55;;;;;;;;;;5106132;28;20092;-64
2022/08/20 11:32:21;;;;;;;7.15;1.98;;;;;;;;;;5107600;27;20075;-60
2022/08/20 11:34:47;;;;;;;7.90;1.60;;;;;;;;;;5112539;27;20043;-66
2022/08/20 11:37:15;;;;;;;6.35;1.60;;;;;;;;;;5120853;27;20126;-55
2022/08/20 11:39:42;;;;;;;12.63;2.08;;;;;;;;;;5107293;27;20039;-56
2022/08/20 11:42:08;;;;;;;7.13;1.90;;;;;;;;;;5107796;28;20482;-59
2022/08/20 11:44:34;;;;;;;5.28;1.35;;;;;;;;;;5107381;28;20494;-57
2022/08/20 11:47:02;;;;;;;5.30;2.00;;;;;;;;;;5107829;27;20043;-57
2022/08/20 11:49:32;;;;;;;10.63;1.88;;;;;;;;;;5110233;27;20059;-57
2022/08/20 11:51:58;;;;;;;6.32;1.35;;;;;;;;;;5110123;27;20046;-62
2022/08/20 11:54:27;;;;;;;8.02;1.70;;;;;;;;;;5116821;27;20040;-59
2022/08/20 11:56:55;;;;;;;10.88;2.00;;;;;;;;;;5116275;27;20174;-61
2022/08/20 11:59:21;;;;;;;7.22;2.03;;;;;;;;;;5109463;27;20044;-56
2022/08/20 12:01:47;;;;;;;5.15;1.38;;;;;;;;;;5107416;27;20047;-67
2022/08/20 12:04:13;;;;;;;7.72;2.15;;;;;;;;;;5108790;27;20069;-59
2022/08/20 12:06:39;;;;;;;9.73;1.90;;;;;;;;;;5106637;28;20047;-58
2022/08/20 12:09:05;;;;;;;9.18;1.88;;;;;;;;;;5111835;27;20036;-63
2022/08/20 12:11:32;;;;;;;9.50;2.38;;;;;;;;;;5106342;27;20047;-60
2022/08/20 12:13:58;;;;;;;6.95;1.52;;;;;;;;;;5108191;28;20509;-56
2022/08/20 12:16:27;;;;;;;7.25;1.60;;;;;;;;;;5107119;28;20143;-61
2022/08/20 12:18:53;;;;;;;5.63;1.38;;;;;;;;;;5115084;27;20125;-66
2022/08/20 12:21:19;;;;;;;8.38;1.48;;;;;;;;;;5109371;27;20107;-66
2022/08/20 12:23:45;;;;;;;5.65;1.50;;;;;;;;;;5117069;27;20054;-60
2022/08/20 12:26:11;;;;;;;6.03;1.40;;;;;;;;;;5094921;28;20489;-59
2022/08/20 12:28:37;;;;;;;6.05;2.15;;;;;;;;;;5104765;27;20043;-60
2022/08/20 12:31:04;;;;;;;9.68;2.25;;;;;;;;;;5120356;27;20059;-64
2022/08/20 12:33:34;;;;;;;8.00;1.92;;;;;;;;;;5106869;28;20039;-56
2022/08/20 12:36:00;;;;;;;8.85;2.13;;;;;;;;;;5106226;28;20477;-63
2022/08/20 12:38:26;;;;;;;10.20;2.20;;;;;;;;;;5123087;27;20075;-55
2022/08/20 12:40:52;;;;;;;7.53;1.70;;;;;;;;;;5119353;27;20100;-56
2022/08/20 12:43:18;;;;;;;13.70;1.75;;;;;;;;;;5106928;28;20078;-60
2022/08/20 12:45:44;;;;;;;6.05;1.83;;;;;;;;;;5105916;28;20466;-56
2022/08/20 12:48:11;;;;;;;8.60;2.17;;;;;;;;;;5107898;28;20044;-56
2022/08/20 12:50:38;;;;;;;7.82;1.90;;;;;;;;;;5137581;27;20039;-63
2022/08/20 12:53:05;;;;;;;12.00;2.15;;;;;;;;;;5111250;27;20052;-58
2022/08/20 12:55:31;;;;;;;8.60;2.00;;;;;;;;;;5092443;27;20046;-64
2022/08/20 12:57:59;;;;;;;6.88;1.55;;;;;;;;;;5112884;27;20047;-64
2022/08/20 13:00:30;;;;;;;8.10;1.90;;;;;;;;;;5109686;27;20055;-60
2022/08/20 13:02:57;;;;;;;9.90;1.83;;;;;;;;;;5106171;27;20474;-60
2022/08/20 13:05:23;;;;;;;7.00;1.52;;;;;;;;;;5107245;28;20481;-63
2022/08/20 13:07:51;;;;;;;13.70;2.03;;;;;;;;;;5106186;28;20067;-61
2022/08/20 13:10:25;;;;;;;9.57;1.90;;;;;;;;;;5106124;28;20100;-56
2022/08/20 13:12:51;;;;;;;7.07;1.63;;;;;;;;;;5118522;27;20059;-61
2022/08/20 13:15:18;;;;;;;8.35;1.95;;;;;;;;;;5104801;28;20039;-62
2022/08/20 13:17:44;;;;;;;11.45;2.15;;;;;;;;;;5117245;28;20047;-60
2022/08/20 13:20:11;;;;;;;10.27;2.15;;;;;;;;;;5107725;28;20145;-57
2022/08/20 13:22:37;;;;;;;9.77;2.00;;;;;;;;;;5109811;28;20039;-57
2022/08/20 13:25:04;;;;;;;11.68;2.13;;;;;;;;;;5109717;28;20042;-56
2022/08/20 13:27:30;;;;;;;8.35;2.13;;;;;;;;;;5103003;28;20048;-63
2022/08/20 13:29:57;;;;;;;12.25;2.00;;;;;;;;;;5098070;27;20328;-56
2022/08/20 13:32:23;;;;;;;12.07;1.83;;;;;;;;;;5118948;27;20101;-65
2022/08/20 13:34:50;;;;;;;5.95;1.67;;;;;;;;;;5123908;27;20123;-61
2022/08/20 13:37:18;;;;;;;9.57;2.10;;;;;;;;;;5120087;27;20070;-58
2022/08/20 13:39:44;;;;;;;10.55;2.08;;;;;;;;;;5114187;27;20043;-58
2022/08/20 13:42:11;;;;;;;6.03;1.80;;;;;;;;;;5108983;28;20676;-59
2022/08/20 13:44:38;;;;;;;9.45;1.52;;;;;;;;;;5110827;27;20538;-58
2022/08/20 13:47:13;;;;;;;6.85;2.00;;;;;;;;;;5110366;28;20058;-56
2022/08/20 13:49:40;;;;;;;7.20;1.95;;;;;;;;;;5110089;28;20063;-63
2022/08/20 13:52:06;;;;;;;6.70;2.17;;;;;;;;;;5114319;27;20074;-56
2022/08/20 13:54:32;;;;;;;11.00;2.10;;;;;;;;;;5114390;27;20047;-62
2022/08/20 13:57:05;;;;;;;11.95;2.10;;;;;;;;;;5117228;27;20039;-58
2022/08/20 13:59:38;;;;;;;9.82;2.30;;;;;;;;;;5115246;27;20440;-63
2022/08/20 14:02:05;;;;;;;10.15;1.80;;;;;;;;;;5107979;27;20032;-61
2022/08/20 14:04:31;;;;;;;8.25;2.03;;;;;;;;;;5110762;27;20048;-69
2022/08/20 14:06:57;;;;;;;12.52;1.77;;;;;;;;;;5092196;28;20409;-61
2022/08/20 14:09:23;;;;;;;7.80;1.65;;;;;;;;;;5109652;28;20169;-66
2022/08/20 14:11:49;;;;;;;11.50;1.77;;;;;;;;;;5112208;27;20059;-58
2022/08/20 14:14:16;;;;;;;8.63;1.85;;;;;;;;;;5110891;28;20047;-57
2022/08/20 14:16:42;;;;;;;11.55;2.05;;;;;;;;;;5123166;27;20043;-60
2022/08/20 14:19:08;;;;;;;8.18;2.15;;;;;;;;;;5111961;27;20036;-57
2022/08/20 14:21:34;;;;;;;10.95;2.15;;;;;;;;;;5096414;28;20130;-57
2022/08/20 14:24:01;;;;;;;5.63;1.58;;;;;;;;;;5118951;27;20118;-61
2022/08/20 14:26:27;;;;;;;10.77;1.70;;;;;;;;;;5114761;27;20059;-60
2022/08/20 14:28:53;;;;;;;7.35;1.77;;;;;;;;;;5107290;27;20097;-61
2022/08/20 14:31:20;;;;;;;8.93;1.90;;;;;;;;;;5106487;27;21046;-64
2022/08/20 14:33:46;;;;;;;8.50;2.00;;;;;;;;;;5106680;28;20043;-60
2022/08/20 14:36:12;;;;;;;8.32;1.70;;;;;;;;;;5125933;27;20404;-57
2022/08/20 14:38:43;;;;;;;8.52;2.33;;;;;;;;;;5106468;27;20128;-58
2022/08/20 14:41:09;;;;;;;7.72;2.05;;;;;;;;;;5106857;27;20753;-63
2022/08/20 14:43:35;;;;;;;8.20;2.10;;;;;;;;;;5107210;27;20047;-64
2022/08/20 14:46:01;;;;;;;7.15;1.85;;;;;;;;;;5105268;28;20090;-59
2022/08/20 14:48:28;;;;;;;15.05;2.30;;;;;;;;;;5139491;27;20031;-61